createdAt,value
2019-04-13T00:01:49.214Z,75.66
2019-04-13T00:06:50.063Z,75.78
2019-04-13T00:11:47.897Z,75.52
2019-04-13T00:16:43.980Z,74.52
2019-04-13T00:21:40.003Z,74.63
2019-04-13T00:26:35.927Z,74.77
2019-04-13T00:31:31.923Z,75.29
2019-04-13T00:36:27.861Z,75.21
2019-04-13T00:41:23.785Z,75.52
2019-04-13T00:46:19.705Z,75.53
2019-04-13T00:51:16.212Z,75.29
2019-04-13T00:56:12.318Z,75.18
2019-04-13T01:01:08.245Z,75.26
2019-04-13T01:06:04.206Z,75.29
2019-04-13T01:11:00.226Z,76.32
2019-04-13T01:15:56.195Z,77.30
2019-04-13T01:20:55.789Z,78.70
2019-04-13T01:25:51.729Z,79.84
2019-04-13T01:30:47.695Z,80.38
2019-04-13T01:35:43.618Z,80.56
2019-04-13T01:40:39.747Z,80.36
2019-04-13T01:45:35.717Z,80.21
2019-04-13T01:50:36.293Z,79.91
2019-04-13T01:55:32.431Z,79.42
2019-04-13T02:00:39.286Z,78.53
2019-04-13T02:05:42.884Z,78.10
2019-04-13T02:10:46.674Z,78.63
2019-04-13T02:15:42.699Z,78.16
2019-04-13T02:20:41.908Z,78.55
2019-04-13T02:25:37.933Z,78.68
2019-04-13T02:30:33.868Z,79.42
2019-04-13T02:35:36.004Z,79.90
2019-04-13T02:40:27.797Z,80.21
2019-04-13T02:45:23.730Z,80.56
2019-04-13T02:50:19.858Z,80.16
2019-04-13T02:55:15.790Z,81.36
2019-04-13T03:00:12.452Z,80.81
2019-04-13T03:05:08.795Z,81.02
2019-04-13T03:10:05.205Z,80.81
2019-04-13T03:15:01.123Z,80.39
2019-04-13T03:20:07.797Z,80.64
2019-04-13T03:25:05.038Z,79.94
2019-04-13T03:30:01.053Z,80.29
2019-04-13T03:34:56.977Z,79.44
2019-04-13T03:39:52.987Z,79.35
2019-04-13T03:44:48.905Z,79.21
2019-04-13T03:49:44.834Z,79.29
2019-04-13T03:54:40.764Z,78.99
2019-04-13T03:59:36.682Z,79.86
2019-04-13T04:04:32.606Z,79.65
2019-04-13T04:09:28.522Z,80.12
2019-04-13T04:14:24.429Z,80.13
2019-04-13T04:19:20.353Z,81.04
2019-04-13T04:24:16.357Z,81.27
2019-04-13T04:29:12.275Z,81.07
2019-04-13T04:34:08.203Z,81.41
2019-04-13T04:39:05.627Z,81.48
2019-04-13T04:44:01.948Z,81.39
2019-04-13T04:48:57.966Z,82.17
2019-04-13T04:53:53.894Z,82.50
2019-04-13T04:58:49.815Z,82.54
2019-04-13T05:03:45.784Z,82.79
2019-04-13T05:08:43.584Z,83.54
2019-04-13T05:13:43.528Z,83.41
2019-04-13T05:18:41.818Z,84.23
2019-04-13T05:23:41.878Z,84.16
2019-04-13T05:28:39.866Z,84.85
2019-04-13T05:38:55.902Z,84.51
2019-04-13T05:43:52.663Z,84.41
2019-04-13T05:48:49.181Z,84.70
2019-04-13T05:53:47.688Z,85.13
2019-04-13T05:58:44.377Z,85.19
2019-04-13T06:03:40.989Z,85.56
2019-04-13T06:08:37.600Z,85.37
2019-04-13T06:13:34.153Z,84.78
2019-04-13T06:18:30.574Z,83.99
2019-04-13T06:23:26.776Z,83.77
2019-04-13T06:28:22.727Z,83.54
2019-04-13T06:33:23.395Z,82.75
2019-04-13T06:38:21.721Z,81.43
2019-04-13T06:43:17.394Z,80.97
2019-04-13T06:48:13.436Z,80.97
2019-04-13T06:53:09.497Z,80.85
2019-04-13T06:58:05.542Z,79.63
2019-04-13T07:03:01.567Z,77.89
2019-04-13T07:08:14.772Z,75.20
2019-04-13T07:13:24.941Z,76.69
2019-04-13T07:18:21.523Z,76.26
2019-04-13T07:23:17.476Z,75.19
2019-04-13T07:28:13.402Z,75.60
2019-04-13T07:33:09.437Z,76.75
2019-04-13T07:38:05.403Z,77.39
2019-04-13T07:43:01.428Z,78.63
2019-04-13T07:48:11.581Z,80.52
2019-04-13T07:53:09.422Z,80.44
2019-04-13T07:58:05.467Z,77.15
2019-04-13T08:03:01.390Z,75.78
2019-04-13T08:07:57.315Z,76.18
2019-04-13T08:12:53.249Z,74.20
2019-04-13T08:17:53.560Z,74.43
2019-04-13T08:22:47.500Z,75.62
2019-04-13T08:27:43.444Z,72.98
2019-04-13T08:32:41.783Z,71.51
2019-04-13T08:37:52.865Z,72.51
2019-04-13T08:48:01.242Z,67.08
2019-04-13T08:53:00.151Z,63.98
2019-04-13T08:58:07.145Z,64.43
2019-04-13T09:03:13.851Z,62.90
2019-04-13T09:08:28.642Z,58.98
2019-04-13T09:13:15.208Z,61.72
2019-04-13T09:18:16.382Z,63.37
2019-04-13T09:28:36.784Z,61.10
2019-04-13T09:33:38.490Z,61.01
2019-04-13T09:38:42.205Z,61.26
2019-04-13T09:43:40.050Z,62.32
2019-04-13T09:48:38.575Z,66.02
2019-04-13T09:53:38.729Z,65.61
2019-04-13T09:58:37.149Z,66.73
2019-04-13T10:03:39.165Z,63.55
2019-04-13T10:08:55.809Z,62.00
2019-04-13T10:19:01.348Z,62.16
2019-04-13T10:23:58.752Z,65.76
2019-04-13T10:29:07.898Z,62.45
2019-04-13T10:34:11.741Z,64.91
2019-04-13T10:39:16.159Z,61.56
2019-04-13T10:44:17.310Z,62.57
2019-04-13T10:49:34.334Z,64.46
2019-04-13T10:54:36.392Z,65.10
2019-04-13T10:59:40.140Z,68.18
2019-04-13T11:04:40.443Z,73.12
2019-04-13T11:09:39.910Z,75.34
2019-04-13T11:14:40.684Z,77.24
2019-04-13T11:19:44.128Z,78.63
2019-04-13T11:24:42.811Z,77.81
2019-04-13T11:29:59.471Z,77.09
2019-04-13T11:35:05.405Z,74.36
2019-04-13T11:40:03.533Z,71.63
2019-04-13T11:45:22.674Z,71.54
2019-04-13T11:50:21.363Z,74.40
2019-04-13T11:55:25.248Z,74.91
2019-04-13T12:00:43.881Z,72.53
2019-04-13T12:05:42.483Z,71.76
2019-04-13T12:10:45.861Z,68.27
2019-04-13T12:16:12.023Z,68.59
2019-04-13T12:21:36.223Z,70.08
2019-04-13T12:26:37.085Z,74.65
2019-04-13T12:31:39.331Z,77.39
2019-04-13T12:36:38.958Z,77.43
2019-04-13T12:42:00.872Z,76.73
2019-04-13T12:46:59.447Z,75.83
2019-04-13T12:52:00.859Z,72.78
2019-04-13T12:57:00.441Z,73.82
2019-04-13T13:02:10.812Z,71.01
2019-04-13T13:07:19.596Z,71.70
2019-04-13T13:12:23.479Z,75.86
2019-04-13T13:17:28.450Z,73.67
2019-04-13T13:22:25.473Z,68.95
2019-04-13T13:27:29.155Z,64.81
2019-04-13T13:32:31.414Z,63.97
2019-04-13T13:37:31.663Z,61.58
2019-04-13T13:42:30.519Z,62.56
2019-04-13T13:47:28.045Z,64.06
2019-04-13T13:52:32.317Z,62.18
2019-04-13T13:57:35.842Z,63.04
2019-04-13T14:02:33.442Z,60.99
2019-04-13T14:07:32.882Z,58.76
2019-04-13T14:12:31.640Z,58.83
2019-04-13T14:17:34.542Z,58.41
2019-04-13T14:22:32.384Z,58.11
2019-04-13T14:27:30.751Z,57.46
2019-04-13T14:32:30.122Z,56.05
2019-04-13T14:37:36.397Z,57.13
2019-04-13T14:42:34.333Z,56.29
2019-04-13T14:47:37.324Z,62.02
2019-04-13T14:52:36.086Z,64.44
2019-04-13T14:57:38.981Z,70.60
2019-04-13T15:02:37.202Z,73.49
2019-04-13T15:07:35.301Z,75.66
2019-04-13T15:12:37.009Z,77.55
2019-04-13T15:17:56.594Z,79.69
2019-04-13T15:22:57.326Z,79.20
2019-04-13T15:27:56.855Z,77.97
2019-04-13T15:32:56.036Z,78.43
2019-04-13T15:37:56.043Z,78.05
2019-04-13T15:43:00.091Z,77.18
2019-04-13T15:47:55.249Z,75.52
2019-04-13T15:52:58.226Z,72.25
2019-04-13T15:57:55.577Z,70.95
2019-04-13T16:02:56.319Z,66.96
2019-04-13T16:08:05.286Z,66.51
2019-04-13T16:13:08.799Z,63.88
2019-04-13T16:18:11.800Z,64.79
2019-04-13T16:23:11.710Z,61.96
2019-04-13T16:28:24.681Z,62.32
2019-04-13T16:33:39.194Z,61.86
2019-04-13T16:38:51.618Z,58.49
2019-04-13T16:43:41.000Z,61.86
2019-04-13T16:48:55.892Z,64.59
2019-04-13T16:54:00.414Z,66.51
2019-04-13T16:59:07.390Z,69.55
2019-04-13T17:04:23.925Z,72.84
2019-04-13T17:09:27.411Z,75.07
2019-04-13T17:14:24.887Z,76.44
2019-04-13T17:24:59.791Z,75.84
2019-04-13T17:30:17.791Z,76.26
2019-04-13T17:35:28.668Z,77.29
2019-04-13T17:46:09.883Z,77.51
2019-04-13T17:51:37.508Z,77.64
2019-04-13T17:56:36.482Z,77.54
2019-04-13T18:01:53.509Z,78.70
2019-04-13T18:07:09.405Z,78.40
2019-04-13T18:12:41.546Z,79.01
2019-04-13T18:17:32.899Z,79.19
2019-04-13T18:22:31.492Z,79.24
2019-04-13T18:27:34.992Z,79.69
2019-04-13T18:32:36.020Z,79.12
2019-04-13T18:37:32.823Z,79.87
2019-04-13T18:42:28.806Z,79.31
2019-04-13T18:47:24.849Z,78.03
2019-04-13T18:52:21.738Z,78.47
2019-04-13T18:57:17.837Z,79.08
2019-04-13T19:02:14.655Z,79.43
2019-04-13T19:07:10.780Z,79.10
2019-04-13T19:12:06.707Z,79.47
2019-04-13T19:17:02.732Z,80.14
2019-04-13T19:21:58.656Z,80.19
2019-04-13T19:26:54.582Z,79.94
2019-04-13T19:31:50.589Z,80.49
2019-04-13T19:36:46.561Z,80.50
2019-04-13T19:41:42.481Z,81.29
2019-04-13T19:46:38.510Z,82.58
2019-04-13T19:51:41.614Z,84.02
2019-04-13T19:56:37.605Z,84.48
2019-04-13T20:01:33.532Z,84.79
2019-04-13T20:06:29.457Z,85.11
2019-04-13T20:11:25.377Z,85.82
2019-04-13T20:16:21.370Z,85.95
2019-04-13T20:21:22.375Z,85.11
2019-04-13T20:26:18.728Z,85.31
2019-04-13T20:31:15.825Z,85.26
2019-04-13T20:36:16.618Z,85.48
2019-04-13T20:41:12.687Z,85.96
2019-04-13T20:46:10.984Z,85.61
2019-04-13T20:51:12.826Z,85.84
2019-04-13T20:56:09.793Z,85.68
2019-04-13T21:01:06.324Z,86.39
2019-04-13T21:06:02.468Z,86.06
2019-04-13T21:10:58.405Z,85.67
2019-04-13T21:15:55.358Z,85.55
2019-04-13T21:20:59.947Z,85.51
2019-04-13T21:25:56.082Z,85.21
2019-04-13T21:30:53.162Z,85.66
2019-04-13T21:35:49.295Z,85.30
2019-04-13T21:40:45.205Z,85.31
2019-04-13T21:45:41.248Z,85.17
2019-04-13T21:51:00.922Z,85.07
2019-04-13T21:55:57.225Z,85.37
2019-04-13T22:01:17.046Z,85.24
2019-04-13T22:06:13.114Z,85.09
2019-04-13T22:11:10.311Z,85.15
2019-04-13T22:16:06.381Z,84.65
2019-04-13T22:21:06.888Z,84.17
2019-04-13T22:26:03.063Z,83.75
2019-04-13T22:31:09.757Z,83.60
2019-04-13T22:36:16.365Z,83.77
2019-04-13T22:41:13.408Z,84.88
2019-04-13T22:46:10.853Z,84.78
2019-04-13T22:51:27.139Z,85.28
2019-04-13T22:56:37.652Z,85.42
2019-04-13T23:01:39.786Z,85.94
2019-04-13T23:06:35.989Z,86.18
2019-04-13T23:11:32.459Z,86.24
2019-04-13T23:16:28.500Z,86.02
2019-04-13T23:21:25.094Z,86.23
2019-04-13T23:26:21.295Z,86.42
2019-04-13T23:31:17.355Z,86.89
2019-04-13T23:36:13.600Z,86.61
2019-04-13T23:41:10.316Z,86.84
2019-04-13T23:46:06.872Z,87.12
2019-04-13T23:51:03.587Z,86.87
2019-04-13T23:56:02.035Z,87.22
